IZ1TNJ Torino IT current weather conditions

sailwx.info

Wind from 270 at 3 knots gusting 5

Last reported at 2020-Aug-06 18:50 UTC.
Time now 2020-Aug-06 19:30 UTC

Location: N 45°03' E 007°20'.
View on Google Maps.

See reports from other nearby stations

  
Tides and Currents Weather Stations Pressure Air Temp Water Temp Dewpoint Dewpoint Depression Visibility Wind Speed Wind Dir Waves Ship Positions
date/time (UTC)wind fromknots sea level pressurealtimeterstation pressurevisibilityair tempwater tempwave heightnotes
2020-Aug-06 19:00 270 2 gusting 5
2020-Aug-06 18:50 270 3 gusting 5
2020-Aug-06 18:40 270 1 gusting 3
2020-Aug-06 18:30 270 3 gusting 6 22.2
2020-Aug-06 18:20 270 2 gusting 5 22.2
2020-Aug-06 18:10 270 0 gusting 1 22.2
2020-Aug-06 18:00 158 1 gusting 2 22.2
2020-Aug-06 17:50 158 0 gusting 1 23.3
2020-Aug-06 17:40 158 0 gusting 1 23.9
2020-Aug-06 17:30 25.0
2020-Aug-06 17:20 25.6
2020-Aug-06 17:10 158 0 gusting 2 26.1
2020-Aug-06 17:00 135 1 gusting 2 27.2
2020-Aug-06 16:50 158 2 gusting 5 27.2
2020-Aug-06 16:40 180 2 gusting 4 27.2
2020-Aug-06 16:30 158 1 gusting 4 27.2
2020-Aug-06 16:20 158 1 gusting 6 27.2
2020-Aug-06 16:10 158 2 gusting 4 27.8
2020-Aug-06 16:00 135 0 gusting 2 27.2
2020-Aug-06 15:50 158 3 gusting 5 26.7
2020-Aug-06 15:40 158 2 gusting 7 27.2
2020-Aug-06 15:30 135 2 gusting 7 27.2
2020-Aug-06 15:20 158 2 gusting 5 27.2
2020-Aug-06 15:10 113 1 gusting 5 27.2
2020-Aug-06 15:00 158 2 gusting 6 27.2
2020-Aug-06 14:50 090 2 gusting 6 27.8
2020-Aug-06 14:40 113 1 gusting 5 27.2
2020-Aug-06 14:30 113 2 gusting 7 27.2
2020-Aug-06 14:20 158 3 gusting 7 27.2
2020-Aug-06 14:10 135 2 gusting 6 27.2
2020-Aug-06 14:00 090 3 gusting 7 27.2
2020-Aug-06 13:50 158 2 gusting 6 27.2
2020-Aug-06 13:40 090 3 gusting 6 27.2
2020-Aug-06 13:30 158 3 gusting 6 27.2
2020-Aug-06 13:20 180 1 gusting 6 27.2
2020-Aug-06 13:10 090 2 gusting 7 26.7
2020-Aug-06 13:00 113 2 gusting 8 27.2
2020-Aug-06 12:50 090 2 gusting 7 27.2
2020-Aug-06 12:40 090 2 gusting 6 27.2
2020-Aug-06 12:30 068 2 gusting 6 26.7
2020-Aug-06 12:20 090 4 gusting 7 26.7
2020-Aug-06 12:10 135 3 gusting 7 26.7
2020-Aug-06 12:00 158 1 gusting 6 26.7
2020-Aug-06 11:50 135 1 gusting 6 26.7
2020-Aug-06 11:40 113 2 gusting 6 26.7
2020-Aug-06 11:30 113 1 gusting 6 26.7
2020-Aug-06 11:20 113 3 gusting 8 26.7
2020-Aug-06 11:10 135 2 gusting 9 26.7
2020-Aug-06 11:00 158 2 gusting 7 26.1
2020-Aug-06 10:50 158 3 gusting 8 25.6
2020-Aug-06 10:40 158 3 gusting 6 25.6
2020-Aug-06 10:30 090 2 gusting 6 25.6
2020-Aug-06 10:20 090 1 gusting 6 25.0
2020-Aug-06 10:10 090 1 gusting 5 25.0
2020-Aug-06 10:00 113 3 gusting 7 25.0
2020-Aug-06 09:50 158 2 gusting 5 25.0
2020-Aug-06 09:40 090 0 gusting 2 25.0
2020-Aug-06 09:30 090 2 gusting 5 24.4
2020-Aug-06 09:20 113 1 gusting 6 24.4
2020-Aug-06 09:10 090 2 gusting 6 24.4
2020-Aug-06 09:00 090 2 gusting 6 23.9
2020-Aug-06 08:50 090 2 gusting 5 23.9
2020-Aug-06 08:40 135 0 gusting 3 24.4
2020-Aug-06 08:30 113 1 gusting 4 24.4
2020-Aug-06 08:20 090 1 gusting 5 25.0
2020-Aug-06 08:10 158 1 gusting 3 24.4
2020-Aug-06 08:00 113 0 gusting 3 24.4
2020-Aug-06 07:50 135 0 gusting 2 23.9
2020-Aug-06 07:40 158 3 gusting 6
2020-Aug-06 07:30 158 1 gusting 3
2020-Aug-06 07:20 180 1 gusting 4
2020-Aug-06 07:10 158 1 gusting 3
2020-Aug-06 07:00 158 0 gusting 4
2020-Aug-06 06:50 248 0 gusting 2
2020-Aug-06 06:40 248 0 gusting 1
2020-Aug-06 06:30 248 0 gusting 2
2020-Aug-06 06:20
2020-Aug-06 06:10
2020-Aug-06 06:00
2020-Aug-06 05:50 248 0 gusting 1 16.7
2020-Aug-06 05:40 248 0 gusting 1 16.7
2020-Aug-06 05:30 248 0 gusting 1 15.0
2020-Aug-06 05:20 248 0 gusting 1
2020-Aug-06 05:10 270 1 gusting 3 15.0
2020-Aug-06 05:05 270 2 gusting 3 15.0
2020-Aug-06 04:50 270 1 gusting 2
2020-Aug-06 04:40 270 1 gusting 3
2020-Aug-06 04:30 270 0 gusting 1
2020-Aug-06 04:20 293 1 gusting 2
2020-Aug-06 04:10 293 1 gusting 2
2020-Aug-06 04:00 293 0 gusting 1
2020-Aug-06 03:50 293 1 gusting 2
2020-Aug-06 03:40 293 1 gusting 2
2020-Aug-06 03:30 293 1 gusting 2
2020-Aug-06 03:20 293 1 gusting 2
2020-Aug-06 03:10 293 1 gusting 1
2020-Aug-06 03:00 293 1 gusting 2
2020-Aug-06 02:50 293 1 gusting 2
2020-Aug-06 02:40 293 1 gusting 2
2020-Aug-06 02:30 270 1 gusting 1
2020-Aug-06 02:20 270 1 gusting 2
2020-Aug-06 02:10 270 1 gusting 2
2020-Aug-06 02:00 270 1 gusting 2
2020-Aug-06 01:50 270 1 gusting 2
2020-Aug-06 01:40 270 1 gusting 4
2020-Aug-06 01:30 270 0 gusting 2
2020-Aug-06 01:20 270 1 gusting 2
2020-Aug-06 01:10 270 1 gusting 6
2020-Aug-06 01:00 270 1 gusting 6
2020-Aug-06 00:50 270 2 gusting 6
2020-Aug-06 00:40 270 0 gusting 2
2020-Aug-06 00:30 270 1 gusting 5
2020-Aug-06 00:20 270 0 gusting 2
2020-Aug-06 00:10 270 2 gusting 5
2020-Aug-06 00:00 270 3 gusting 6
2020-Aug-05 23:50 270 2 gusting 6
2020-Aug-05 23:40 248 1 gusting 3
2020-Aug-05 23:30 270 2 gusting 6
2020-Aug-05 23:20 270 3 gusting 6
2020-Aug-05 23:10 270 0 gusting 1
2020-Aug-05 23:06 270 0 gusting 1
2020-Aug-05 23:00 270 1 gusting 2
2020-Aug-05 22:50 270 1 gusting 3
2020-Aug-05 22:40 293 1 gusting 5
2020-Aug-05 22:30 270 1 gusting 2
2020-Aug-05 22:20 270 2 gusting 5
2020-Aug-05 22:10 270 1 gusting 3
2020-Aug-05 22:00 270 1 gusting 2
2020-Aug-05 21:50 270 1 gusting 3
2020-Aug-05 21:40 293 1 gusting 3
2020-Aug-05 21:30 293 1 gusting 2
2020-Aug-05 21:20 293 1 gusting 2
2020-Aug-05 21:10 293 1 gusting 2
2020-Aug-05 21:00 270 1 gusting 2
2020-Aug-05 20:50 270 0 gusting 2
2020-Aug-05 20:40 270 0 gusting 2
2020-Aug-05 20:30 270 2 gusting 5
2020-Aug-05 20:20 270 1 gusting 3
2020-Aug-05 20:10 270 2 gusting 5
2020-Aug-05 20:00 270 2 gusting 6
2020-Aug-05 19:50 270 3 gusting 7
2020-Aug-05 19:40 270 1 gusting 3
2020-Aug-05 19:30 248 3 gusting 6
2020-Aug-05 19:20 270 3 gusting 6
2020-Aug-05 19:10 270 3 gusting 6
2020-Aug-05 19:00 270 4 gusting 6
2020-Aug-05 18:50 270 3 gusting 6
2020-Aug-05 18:40 270 4 gusting 6
2020-Aug-05 18:30 270 3 gusting 6
2020-Aug-05 18:20 248 3 gusting 6 20.6
2020-Aug-05 18:10 270 3 gusting 6 20.6
2020-Aug-05 18:00 135 0 gusting 3 21.1
2020-Aug-05 17:50 21.7
2020-Aug-05 17:40 135 0 gusting 1 22.8
2020-Aug-05 17:30 135 0 gusting 1 23.9
2020-Aug-05 17:20 135 0 gusting 2 25.0
2020-Aug-05 17:10 090 0 gusting 2 25.6
2020-Aug-05 17:00 135 0 gusting 2 26.1
2020-Aug-05 16:50 135 1 gusting 5 25.6
2020-Aug-05 16:40 158 2 gusting 5 26.1
2020-Aug-05 16:30 113 1 gusting 5 26.1
2020-Aug-05 16:20 135 1 gusting 4 26.1
2020-Aug-05 16:10 158 2 gusting 6 26.1
2020-Aug-05 16:00 158 2 gusting 6 26.1
2020-Aug-05 15:50 158 0 gusting 3 26.1
2020-Aug-05 15:40 113 1 gusting 6 26.1
2020-Aug-05 15:30 158 2 gusting 6 25.6
2020-Aug-05 15:20 068 2 gusting 6 25.6
2020-Aug-05 15:10 135 1 gusting 3 25.6
2020-Aug-05 15:00 158 3 gusting 7 25.6
2020-Aug-05 14:50 135 2 gusting 6 25.6
2020-Aug-05 14:40 158 2 gusting 6 26.1
2020-Aug-05 14:30 158 3 gusting 7 25.6
2020-Aug-05 14:20 113 5 gusting 8 26.1
2020-Aug-05 14:10 158 3 gusting 8 25.6
2020-Aug-05 14:00 090 4 gusting 8 25.6
2020-Aug-05 13:50 113 3 gusting 6 26.1
2020-Aug-05 13:40 158 2 gusting 6 26.1
2020-Aug-05 13:30 158 3 gusting 7 26.1
2020-Aug-05 13:20 113 3 gusting 8 25.6
2020-Aug-05 13:10 113 4 gusting 10 25.6
2020-Aug-05 13:00 158 4 gusting 10 25.6
2020-Aug-05 12:50 158 2 gusting 10 25.6
2020-Aug-05 12:40 135 4 gusting 9 25.6
2020-Aug-05 12:30 135 1 gusting 6 25.6
2020-Aug-05 12:20 158 3 gusting 7 25.6
2020-Aug-05 12:10 090 1 gusting 5 25.6
2020-Aug-05 12:00 090 3 gusting 6 25.6
2020-Aug-05 11:50 113 2 gusting 7 25.6
2020-Aug-05 11:40 090 3 gusting 7 25.6
2020-Aug-05 11:30 090 5 gusting 8 25.6
2020-Aug-05 11:20 113 2 gusting 6 25.6
2020-Aug-05 11:10 158 1 gusting 6 25.0
2020-Aug-05 11:00 090 2 gusting 6 25.0
2020-Aug-05 10:50 135 2 gusting 6 25.0
2020-Aug-05 10:40 135 3 gusting 9 24.4
2020-Aug-05 10:30 135 2 gusting 6 24.4
2020-Aug-05 10:20 090 2 gusting 6 24.4
2020-Aug-05 10:10 158 2 gusting 6 24.4
2020-Aug-05 10:00 158 2 gusting 6 23.9
2020-Aug-05 09:50 180 2 gusting 5 23.9
2020-Aug-05 09:40 090 3 gusting 7 23.9
2020-Aug-05 09:30 113 3 gusting 7 23.9
2020-Aug-05 09:20 158 2 gusting 7 23.9
2020-Aug-05 09:10 135 1 gusting 5 23.3
2020-Aug-05 09:00 090 3 gusting 6 23.3
2020-Aug-05 08:50 090 3 gusting 7 23.9
2020-Aug-05 08:40 090 2 gusting 6 23.9
2020-Aug-05 08:30 113 2 gusting 5 23.3
2020-Aug-05 08:20 090 2 gusting 5 23.3
2020-Aug-05 08:10 090 2 gusting 6 23.3
2020-Aug-05 08:00 090 2 gusting 5 23.3
2020-Aug-05 07:50 090 2 gusting 6 23.3
2020-Aug-05 07:40 090 1 gusting 5 23.9
2020-Aug-05 07:30 113 1 gusting 3
2020-Aug-05 07:20 135 1 gusting 3
2020-Aug-05 07:10 135 0 gusting 2
2020-Aug-05 07:00 135 1 gusting 2
2020-Aug-05 06:50 113 1 gusting 3 22.2
2020-Aug-05 06:40 315 0 gusting 2
2020-Aug-05 06:30 315 0 gusting 1 19.4
2020-Aug-05 06:20 315 0 gusting 1 19.4
2020-Aug-05 06:10 18.3
2020-Aug-05 06:00 315 0 gusting 0 17.8
2020-Aug-05 05:50 315 0 gusting 1 17.2
2020-Aug-05 05:40 315 1 gusting 2 16.7
2020-Aug-05 05:30 270 1 gusting 3 15.0
2020-Aug-05 05:20 270 0 gusting 1 14.4
2020-Aug-05 05:10 248 1 gusting 3
2020-Aug-05 05:00 270 2 gusting 6
2020-Aug-05 04:50 270 3 gusting 6
2020-Aug-05 04:40 270 2 gusting 5
2020-Aug-05 04:30 270 1 gusting 3
2020-Aug-05 04:20 270 1 gusting 3
2020-Aug-05 04:10 270 1 gusting 2
2020-Aug-05 04:00 270 1 gusting 2
2020-Aug-05 03:50 270 1 gusting 5
2020-Aug-05 03:40 248 1 gusting 6
2020-Aug-05 03:35 248 0 gusting 2
2020-Aug-05 03:20 270 1 gusting 3
2020-Aug-05 03:10 270 1 gusting 6
2020-Aug-05 03:00 270 1 gusting 2
2020-Aug-05 02:50 270 2 gusting 5
2020-Aug-05 02:40 270 1 gusting 3
2020-Aug-05 02:30 270 1 gusting 3
2020-Aug-05 02:20 270 1 gusting 5
2020-Aug-05 02:10 293 1 gusting 4
2020-Aug-05 02:00 270 0 gusting 2
2020-Aug-05 01:50 248 1 gusting 3
2020-Aug-05 01:40 248 0 gusting 4
2020-Aug-05 01:31 270 2 gusting 6
2020-Aug-05 01:25 270 3 gusting 6
2020-Aug-05 01:15 248 1 gusting 3
2020-Aug-05 01:05 270 2 gusting 3
2020-Aug-05 00:55 270 2 gusting 6
2020-Aug-05 00:45 270 1 gusting 3
2020-Aug-05 00:35 270 1 gusting 2
2020-Aug-05 00:25 270 1 gusting 3
2020-Aug-05 00:15 270 1 gusting 2
2020-Aug-05 00:05 270 2 gusting 6
2020-Aug-04 23:55 270 1 gusting 2
2020-Aug-04 23:45 293 0 gusting 2
2020-Aug-04 23:35 270 1 gusting 3
2020-Aug-04 23:25 270 2 gusting 4
2020-Aug-04 23:15 270 1 gusting 3
2020-Aug-04 23:05 270 2 gusting 5
2020-Aug-04 22:55 270 1 gusting 2
2020-Aug-04 22:45 270 1 gusting 5
2020-Aug-04 22:35 270 1 gusting 3
2020-Aug-04 22:25 293 1 gusting 4
2020-Aug-04 22:15 293 1 gusting 3
2020-Aug-04 22:05 270 3 gusting 6
2020-Aug-04 21:55 270 4 gusting 6
2020-Aug-04 21:45 270 4 gusting 6
2020-Aug-04 21:40 270 2 gusting 5
2020-Aug-04 21:30 248 1 gusting 5
2020-Aug-04 21:20 270 4 gusting 6
2020-Aug-04 21:10 270 3 gusting 6
2020-Aug-04 21:00 270 3 gusting 7
2020-Aug-04 20:50 270 3 gusting 6
2020-Aug-04 20:40 270 3 gusting 6
2020-Aug-04 20:30 270 3 gusting 6
2020-Aug-04 20:20 270 4 gusting 6
2020-Aug-04 20:10 270 3 gusting 6
2020-Aug-04 20:00 270 2 gusting 6
2020-Aug-04 19:50 270 1 gusting 3
2020-Aug-04 19:40 270 1 gusting 6
2020-Aug-04 19:30 248 2 gusting 6
2020-Aug-04 19:20 270 2 gusting 5
2020-Aug-04 19:10 270 3 gusting 6
2020-Aug-04 19:00 270 3 gusting 6